Terminal Aerodrome Forecast
Issued by NWS Columbia, SC

Home | Current Version | Previous Version | Text Only | Print | Product List | Glossary On
Versions: 1 2 3 4 5 6 7 8 9 10 11 12 13 14 15 16 17 18 19 20 21 22 23 24 25 26 27 28 29 30 31
756
FTUS42 KCAE 241135
TAFCAE
TAF
KCAE 241135Z 2412/2512 VRB04KT P6SM BKN005 BKN080
      TEMPO 2412/2414 2SM BR OVC004
     FM241400 22005KT P6SM SCT015 BKN035
     FM241700 21008KT P6SM BKN050
     FM250500 18006KT P6SM SCT008 BKN040=

USA.gov is the U.S. government's official web portal to all federal, state and local government web resources and services.